Terminal Aerodrome Forecast
Issued by NWS

Home | Current Version | Previous Version | Text Only | Print | Product List | Glossary On
Versions: 1 2 3 4 5 6 7 8 9 10 11 12 13 14 15 16 17 18 19 20 21 22 23 24 25 26 27 28 29 30 31 32 33 34 35 36 37 38 39 40 41 42 43 44
000
FTUS43 KDTX 211721
TAFYIP
TAF
KYIP 211721Z 2118/2218 09009KT P6SM SCT060 BKN120
     FM211900 09008KT P6SM -SHRA SCT040 OVC070
     FM212100 08007KT 4SM RA BR SCT023 OVC040
     FM220000 09008KT 3SM SHRA BR SCT018 OVC023
      TEMPO 2203/2206 2SM TSRA BR SCT012 OVC018CB
     FM220600 VRB04KT 3SM -SHRA BR BKN008 OVC015
      TEMPO 2209/2212 2SM -DZ OVC008
     FM221400 28005KT 4SM BR OVC022=

USA.gov is the U.S. government's official web portal to all federal, state and local government web resources and services.